Time;durP1;ratioP1;P1;durP2;ratioP2;P2;SDS_P1;SDS_P2;PMS_P1;PMS_P2;Temp;Humidity;BMP_temperature;BMP_pressure;BME280_temperature;BME280_humidity;BME280_pressure;Samples;Min_cycle;Max_cycle;Signal;HPM_P1;HPM_P2
2022/09/01 00:02:14;;;;;;;52.35;49.38;;;23.40;76.60;;;;;;5034249;28;20037;-77
2022/09/01 00:04:43;;;;;;;52.58;49.47;;;23.40;76.70;;;;;;5034816;28;20044;-77
2022/09/01 00:07:09;;;;;;;53.55;50.45;;;23.40;76.80;;;;;;5051134;28;20029;-77
2022/09/01 00:09:36;;;;;;;51.80;48.70;;;23.50;77.30;;;;;;5034587;28;20041;-77
2022/09/01 00:12:02;;;;;;;54.60;51.70;;;23.50;76.90;;;;;;5050931;28;20076;-77
2022/09/01 00:14:30;;;;;;;68.32;64.68;;;23.50;76.90;;;;;;5051071;28;20044;-77
2022/09/01 00:17:00;;;;;;;58.97;55.58;;;23.50;77.30;;;;;;5050580;28;20032;-77
2022/09/01 00:19:26;;;;;;;46.40;43.60;;;23.20;78.50;;;;;;5034304;28;20397;-77
2022/09/01 00:21:53;;;;;;;39.47;37.30;;;22.80;81.10;;;;;;5050552;28;20033;-77
2022/09/01 00:24:19;;;;;;;38.20;35.90;;;22.60;81.30;;;;;;5050298;28;20052;-77
2022/09/01 00:26:45;;;;;;;38.10;35.78;;;22.50;81.80;;;;;;5050549;28;20029;-77
2022/09/01 00:29:11;;;;;;;39.08;36.55;;;22.30;81.80;;;;;;5034383;28;20041;-77
2022/09/01 00:31:38;;;;;;;40.00;37.63;;;22.30;82.50;;;;;;5033801;28;20029;-77
2022/09/01 00:34:04;;;;;;;45.10;41.92;;;22.20;83.40;;;;;;5034457;28;20469;-77
2022/09/01 00:36:30;;;;;;;36.42;34.35;;;22.20;83.60;;;;;;5017571;28;20397;-77
2022/09/01 00:38:56;;;;;;;44.67;42.17;;;22.10;83.30;;;;;;5034085;28;20037;-77
2022/09/01 00:41:25;;;;;;;40.38;38.15;;;22.10;82.80;;;;;;5050250;28;20033;-77
2022/09/01 00:44:04;;;;;;;38.67;36.25;;;22.20;81.70;;;;;;5049787;28;20026;-77
2022/09/01 00:46:35;;;;;;;41.30;38.70;;;22.30;80.90;;;;;;5057323;28;20378;-77
2022/09/01 00:49:08;;;;;;;40.10;37.70;;;22.50;80.70;;;;;;5017757;28;20049;-77
2022/09/01 00:51:36;;;;;;;41.30;38.88;;;22.60;80.20;;;;;;5050327;28;20032;-77
2022/09/01 00:54:03;;;;;;;59.65;56.20;;;22.80;79.70;;;;;;5033846;28;20402;-78
2022/09/01 00:56:30;;;;;;;46.85;44.08;;;22.70;79.40;;;;;;5034009;28;20032;-77
2022/09/01 00:58:56;;;;;;;67.32;63.83;;;22.70;79.20;;;;;;5033876;28;20029;-77
2022/09/01 01:01:22;;;;;;;46.30;43.85;;;22.70;78.70;;;;;;5033331;28;20033;-77
2022/09/01 01:03:48;;;;;;;36.05;33.85;;;22.30;80.10;;;;;;5050452;28;20047;-77
2022/09/01 01:06:15;;;;;;;32.80;30.90;;;22.00;81.70;;;;;;5050385;28;20040;-77
2022/09/01 01:08:56;;;;;;;29.33;27.50;;;21.90;82.90;;;;;;5049690;28;20390;-77
2022/09/01 01:11:22;;;;;;;29.25;27.27;;;21.80;83.30;;;;;;5034511;28;20402;-77
2022/09/01 01:13:59;;;;;;;39.30;36.85;;;21.70;83.90;;;;;;5049603;28;20418;-77
2022/09/01 01:16:27;;;;;;;39.40;37.10;;;21.60;84.60;;;;;;5049717;28;20486;-77
2022/09/01 01:18:53;;;;;;;37.70;35.15;;;21.60;84.20;;;;;;5049873;28;20032;-77
2022/09/01 01:24:18;;;;;;;32.13;30.23;;;21.70;83.80;;;;;;5052069;28;20405;-77
2022/09/01 01:26:46;;;;;;;29.10;27.27;;;21.60;84.30;;;;;;5017515;28;20036;-77
2022/09/01 01:29:12;;;;;;;30.48;28.38;;;21.70;83.60;;;;;;4994031;28;20042;-77
2022/09/01 01:31:38;;;;;;;37.13;34.50;;;21.70;83.30;;;;;;5006361;28;20040;-77
2022/09/01 01:34:06;;;;;;;37.28;34.92;;;21.90;82.60;;;;;;5013351;28;20037;-77
2022/09/01 01:36:35;;;;;;;43.78;41.15;;;22.00;81.80;;;;;;5030997;28;20046;-77
2022/09/01 01:39:04;;;;;;;42.25;39.70;;;22.20;81.70;;;;;;5012989;28;20032;-77
2022/09/01 01:41:31;;;;;;;40.92;38.40;;;22.30;81.00;;;;;;5032162;28;20454;-77
2022/09/01 01:43:58;;;;;;;41.60;39.25;;;22.30;81.40;;;;;;5049527;28;20017;-77
2022/09/01 01:46:24;;;;;;;45.60;42.95;;;22.30;81.20;;;;;;5048982;28;20033;-77
2022/09/01 01:48:51;;;;;;;41.33;38.67;;;22.30;80.70;;;;;;5049328;28;20047;-77
2022/09/01 01:51:19;;;;;;;40.65;37.95;;;22.40;80.20;;;;;;5049559;28;20044;-77
2022/09/01 01:53:46;;;;;;;41.03;38.63;;;22.40;80.00;;;;;;5049064;28;20037;-77
2022/09/01 01:56:13;;;;;;;43.05;40.58;;;22.50;80.00;;;;;;5032679;28;20041;-78
2022/09/01 01:58:39;;;;;;;49.00;46.25;;;22.50;80.10;;;;;;5049480;28;20036;-77
2022/09/01 02:01:06;;;;;;;40.95;38.13;;;22.30;81.50;;;;;;5050360;28;20375;-78
2022/09/01 02:03:37;;;;;;;38.40;35.90;;;22.20;81.70;;;;;;5049565;28;20389;-77
2022/09/01 02:06:06;;;;;;;37.83;35.50;;;22.20;80.70;;;;;;5033298;28;20060;-78
2022/09/01 02:08:34;;;;;;;39.97;37.63;;;22.40;80.70;;;;;;5049120;28;20040;-77
2022/09/01 02:11:01;;;;;;;39.33;37.03;;;22.50;80.30;;;;;;5032849;28;20033;-77
2022/09/01 02:13:30;;;;;;;45.13;42.45;;;22.50;80.40;;;;;;5049140;28;20041;-77
2022/09/01 02:15:58;;;;;;;43.72;41.28;;;22.60;79.70;;;;;;5048867;28;20025;-77
2022/09/01 02:18:27;;;;;;;46.15;43.15;;;22.60;79.40;;;;;;5032491;28;20057;-77
2022/09/01 02:20:54;;;;;;;48.20;45.10;;;22.60;79.30;;;;;;5049266;28;20029;-77
2022/09/01 02:23:23;;;;;;;49.47;46.40;;;22.60;79.40;;;;;;5049929;28;20481;-77
2022/09/01 02:25:52;;;;;;;47.67;44.88;;;22.70;79.40;;;;;;5036379;28;20041;-77
2022/09/01 02:28:18;;;;;;;46.47;43.83;;;22.70;78.90;;;;;;5053286;28;20032;-77
2022/09/01 02:30:46;;;;;;;49.33;46.53;;;22.60;78.90;;;;;;5052620;28;20025;-77
2022/09/01 02:33:18;;;;;;;49.15;46.15;;;22.70;79.00;;;;;;5053039;28;20048;-77
2022/09/01 02:35:48;;;;;;;52.38;49.40;;;22.70;79.30;;;;;;5036856;28;20488;-78
2022/09/01 02:38:16;;;;;;;48.50;45.67;;;22.70;79.00;;;;;;5036013;28;20375;-77
2022/09/01 02:40:44;;;;;;;46.97;44.30;;;22.70;78.60;;;;;;5032926;28;20045;-77
2022/09/01 02:43:12;;;;;;;49.08;46.28;;;22.70;79.00;;;;;;5033009;28;20022;-77
2022/09/01 02:45:41;;;;;;;47.63;44.67;;;22.70;79.10;;;;;;5035214;28;20033;-77
2022/09/01 02:48:08;;;;;;;46.03;43.38;;;22.70;78.90;;;;;;5052595;28;20056;-77
2022/09/01 02:50:38;;;;;;;46.45;43.70;;;22.70;79.30;;;;;;5035969;28;20044;-77
2022/09/01 02:53:08;;;;;;;46.63;43.88;;;22.70;79.60;;;;;;5052760;28;20037;-77
2022/09/01 02:55:36;;;;;;;44.50;41.95;;;22.70;79.20;;;;;;5036584;28;20033;-77
2022/09/01 02:58:02;;;;;;;46.22;43.25;;;22.60;79.10;;;;;;5052776;28;20405;-77
2022/09/01 03:00:30;;;;;;;46.78;44.08;;;22.60;79.30;;;;;;5052064;28;20033;-77
2022/09/01 03:03:00;;;;;;;44.80;42.17;;;22.60;79.50;;;;;;5052419;28;20378;-77
2022/09/01 03:05:27;;;;;;;44.30;41.78;;;22.60;79.30;;;;;;5052253;28;20041;-77
2022/09/01 03:08:00;;;;;;;46.63;44.00;;;22.60;79.40;;;;;;5052548;28;20021;-77
2022/09/01 03:10:31;;;;;;;46.90;44.03;;;22.60;79.60;;;;;;5052259;28;20037;-77
2022/09/01 03:13:01;;;;;;;;;;;22.70;79.50;;;;;;5052661;28;20044;-77
2022/09/01 03:15:27;;;;;;;42.20;39.78;;;22.70;79.60;;;;;;5051805;28;19913;-77
2022/09/01 03:17:53;;;;;;;44.10;41.40;;;22.70;79.40;;;;;;5035624;28;20033;-77
2022/09/01 03:20:20;;;;;;;45.85;43.17;;;22.70;79.60;;;;;;5053124;28;20024;-77
2022/09/01 03:22:49;;;;;;;45.92;42.90;;;22.70;79.40;;;;;;5052214;28;20036;-77
2022/09/01 03:25:15;;;;;;;47.35;44.45;;;22.60;79.90;;;;;;5052306;28;20363;-77
2022/09/01 03:27:41;;;;;;;44.90;42.00;;;22.60;80.00;;;;;;5051685;28;20036;-77
2022/09/01 03:30:08;;;;;;;43.97;41.00;;;22.50;80.30;;;;;;5053118;28;20037;-77
2022/09/01 03:32:34;;;;;;;48.45;45.50;;;22.50;80.20;;;;;;5035488;28;20383;-77
2022/09/01 03:35:00;;;;;;;43.70;41.10;;;22.40;81.40;;;;;;5050870;28;20041;-77
2022/09/01 03:37:26;;;;;;;45.20;42.45;;;22.30;82.40;;;;;;5051890;28;20025;-77
2022/09/01 03:39:52;;;;;;;60.83;57.17;;;22.10;82.40;;;;;;5053045;28;20474;-77
2022/09/01 03:42:18;;;;;;;56.88;53.47;;;22.20;82.00;;;;;;5035001;28;20040;-77
2022/09/01 03:44:45;;;;;;;53.92;50.75;;;22.20;81.90;;;;;;5051775;28;20025;-77
2022/09/01 03:47:14;;;;;;;60.67;56.95;;;22.20;81.70;;;;;;5050891;28;20076;-77
2022/09/01 03:49:42;;;;;;;61.08;57.60;;;22.20;81.40;;;;;;5051208;28;20029;-77
2022/09/01 03:52:09;;;;;;;54.65;51.22;;;22.20;82.40;;;;;;5051509;28;20021;-77
2022/09/01 03:54:35;;;;;;;58.90;55.25;;;22.20;83.00;;;;;;5052637;28;20045;-77
2022/09/01 03:57:04;;;;;;;60.72;57.28;;;22.20;81.90;;;;;;5051456;28;20025;-77
2022/09/01 03:59:31;;;;;;;66.65;62.80;;;22.20;82.50;;;;;;5052679;28;20390;-77
2022/09/01 04:01:59;;;;;;;58.03;54.50;;;22.20;82.20;;;;;;5051045;28;20033;-77
2022/09/01 04:04:25;;;;;;;58.45;55.20;;;22.20;82.70;;;;;;5034691;28;20085;-77
2022/09/01 04:06:51;;;;;;;47.05;43.95;;;22.00;83.30;;;;;;5051823;28;20037;-77
2022/09/01 04:09:17;;;;;;;54.45;51.08;;;22.10;82.20;;;;;;5034784;28;20037;-77
2022/09/01 04:11:45;;;;;;;45.85;42.97;;;22.20;82.40;;;;;;5051144;28;20036;-77
2022/09/01 04:14:11;;;;;;;44.42;41.65;;;22.20;81.50;;;;;;5034467;28;20548;-77
2022/09/01 04:19:26;;;;;;;39.15;36.70;;;22.30;81.30;;;;;;5059128;28;20048;-77
2022/09/01 04:21:55;;;;;;;43.90;40.90;;;22.30;81.30;;;;;;5050993;28;20033;-77
2022/09/01 04:24:23;;;;;;;46.35;43.50;;;22.40;80.90;;;;;;5051141;28;20037;-77
2022/09/01 04:26:49;;;;;;;50.70;47.70;;;22.40;81.20;;;;;;5050834;28;20037;-77
2022/09/01 04:29:17;;;;;;;53.40;50.25;;;22.40;80.90;;;;;;5033554;28;20498;-77
2022/09/01 04:31:44;;;;;;;57.33;53.88;;;22.40;80.70;;;;;;5050192;28;20033;-77
2022/09/01 04:34:12;;;;;;;64.18;60.30;;;22.50;80.90;;;;;;5050712;28;20088;-77
2022/09/01 04:36:40;;;;;;;61.90;58.28;;;22.50;81.00;;;;;;5051039;28;20051;-77
2022/09/01 04:39:08;;;;;;;55.90;52.67;;;22.50;80.90;;;;;;5050508;28;20025;-77
2022/09/01 04:41:36;;;;;;;51.13;48.20;;;22.50;80.80;;;;;;5050791;28;20036;-77
2022/09/01 04:44:03;;;;;;;60.80;57.33;;;22.50;80.70;;;;;;5050720;28;20374;-77
2022/09/01 04:46:34;;;;;;;62.53;58.65;;;22.40;80.50;;;;;;5039990;28;20036;-77
2022/09/01 04:49:09;;;;;;;58.63;55.17;;;22.40;80.70;;;;;;5050385;28;20397;-77
2022/09/01 04:51:42;;;;;;;57.00;53.25;;;22.40;80.70;;;;;;5034693;28;20025;-77
2022/09/01 04:54:12;;;;;;;57.70;53.85;;;22.40;80.80;;;;;;5034267;28;20660;-77
2022/09/01 04:56:40;;;;;;;62.20;58.28;;;22.30;81.90;;;;;;5034791;28;20414;-76
2022/09/01 04:59:09;;;;;;;62.15;58.50;;;22.30;81.50;;;;;;5016930;28;20044;-77
2022/09/01 05:01:42;;;;;;;65.60;61.72;;;22.30;81.40;;;;;;5030834;28;20036;-77
2022/09/01 05:04:13;;;;;;;59.70;55.97;;;22.40;81.30;;;;;;5051462;28;20032;-77
2022/09/01 05:06:41;;;;;;;57.03;53.65;;;22.40;81.20;;;;;;5033609;28;20501;-77
2022/09/01 05:09:10;;;;;;;47.25;44.25;;;22.40;81.10;;;;;;5051490;28;20033;-77
2022/09/01 05:11:36;;;;;;;45.25;42.38;;;22.40;81.20;;;;;;5050297;28;20409;-77
2022/09/01 05:14:04;;;;;;;48.17;44.80;;;22.40;81.00;;;;;;5033232;28;20064;-77
2022/09/01 05:16:30;;;;;;;47.33;44.17;;;22.40;81.00;;;;;;5032923;28;20030;-77
2022/09/01 05:18:56;;;;;;;45.47;42.72;;;22.40;81.30;;;;;;5049972;28;20063;-77
2022/09/01 05:21:27;;;;;;;44.60;41.92;;;22.40;81.20;;;;;;5050075;28;20029;-77
2022/09/01 05:23:53;;;;;;;45.38;42.50;;;22.40;81.20;;;;;;5050081;28;20036;-77
2022/09/01 05:26:29;;;;;;;44.33;41.60;;;22.50;81.00;;;;;;5049662;28;20037;-77
2022/09/01 05:28:58;;;;;;;46.75;43.67;;;22.40;81.00;;;;;;5033410;28;20039;-77
2022/09/01 05:31:26;;;;;;;47.38;43.97;;;22.40;80.80;;;;;;5032631;28;20040;-77
2022/09/01 05:33:52;;;;;;;48.33;45.47;;;22.30;80.80;;;;;;5049895;28;20048;-77
2022/09/01 05:36:21;;;;;;;45.20;42.33;;;22.40;80.80;;;;;;5049741;28;20033;-77
2022/09/01 05:38:48;;;;;;;50.03;46.90;;;22.30;80.90;;;;;;5017097;28;20041;-77
2022/09/01 05:41:14;;;;;;;47.55;44.38;;;22.30;80.90;;;;;;5033084;28;20036;-77
2022/09/01 05:43:45;;;;;;;44.88;42.08;;;22.30;81.30;;;;;;5032788;28;20037;-77
2022/09/01 05:46:14;;;;;;;;;;;22.30;81.00;;;;;;5056263;28;20107;-77
2022/09/01 05:48:41;;;;;;;38.70;35.95;;;22.30;80.80;;;;;;5049478;28;19920;-77
2022/09/01 05:51:07;;;;;;;44.17;41.28;;;22.40;80.80;;;;;;5016252;28;20045;-77
2022/09/01 05:53:33;;;;;;;42.33;39.67;;;22.30;80.70;;;;;;5032879;28;20033;-77
2022/09/01 05:56:05;;;;;;;42.67;39.70;;;22.30;81.00;;;;;;5032994;28;20087;-77
2022/09/01 05:58:32;;;;;;;41.78;39.13;;;22.30;81.10;;;;;;5016942;28;20492;-77
2022/09/01 06:00:58;;;;;;;43.38;40.47;;;22.30;81.00;;;;;;5032302;28;20040;-77
2022/09/01 06:03:25;;;;;;;43.20;40.35;;;22.30;80.80;;;;;;5049580;28;20025;-77
2022/09/01 06:05:52;;;;;;;44.00;41.10;;;22.30;81.10;;;;;;5049528;28;20029;-77
2022/09/01 06:08:23;;;;;;;45.30;42.58;;;22.30;80.80;;;;;;5049396;28;20029;-77
2022/09/01 06:10:50;;;;;;;48.55;45.22;;;22.20;80.90;;;;;;5033091;28;20037;-77
2022/09/01 06:13:19;;;;;;;53.05;49.50;;;22.30;81.20;;;;;;5049074;28;20139;-77
2022/09/01 06:15:46;;;;;;;53.63;50.47;;;22.20;81.00;;;;;;5048461;28;20029;-77
2022/09/01 06:18:13;;;;;;;61.35;57.10;;;22.20;81.30;;;;;;5049079;28;20367;-77
2022/09/01 06:20:41;;;;;;;57.08;53.53;;;22.20;81.40;;;;;;5050608;28;20029;-77
2022/09/01 06:23:08;;;;;;;50.58;47.35;;;22.20;81.50;;;;;;5050549;28;20025;-77
2022/09/01 06:25:38;;;;;;;50.03;46.95;;;22.20;81.40;;;;;;5049286;28;20029;-77
2022/09/01 06:28:04;;;;;;;45.67;42.67;;;22.20;81.40;;;;;;5013411;28;20049;-77
2022/09/01 06:30:35;;;;;;;49.42;46.50;;;22.30;81.50;;;;;;5011234;28;20029;-77
2022/09/01 06:33:04;;;;;;;49.88;46.63;;;22.30;81.10;;;;;;5028279;28;20037;-77
2022/09/01 06:35:31;;;;;;;47.35;44.10;;;22.20;81.50;;;;;;5045555;28;20049;-77
2022/09/01 06:37:57;;;;;;;47.70;44.60;;;22.30;81.70;;;;;;5045826;28;20029;-77
2022/09/01 06:40:24;;;;;;;47.90;45.00;;;22.30;81.90;;;;;;5025657;28;20042;-77
2022/09/01 06:42:51;;;;;;;47.03;44.25;;;22.30;81.50;;;;;;5025481;28;20479;-77
2022/09/01 06:45:19;;;;;;;52.60;49.25;;;22.30;81.40;;;;;;5056273;28;20456;-77
2022/09/01 06:47:46;;;;;;;55.83;51.97;;;22.30;81.70;;;;;;5032123;28;20045;-77
2022/09/01 06:50:18;;;;;;;51.13;47.80;;;22.30;81.90;;;;;;5049045;28;20029;-77
2022/09/01 06:52:45;;;;;;;50.65;47.22;;;22.30;82.10;;;;;;5033152;28;20040;-77
2022/09/01 06:55:12;;;;;;;52.97;49.47;;;22.30;83.00;;;;;;5015932;28;20057;-77
2022/09/01 06:57:38;;;;;;;52.47;49.08;;;22.40;82.20;;;;;;5031939;28;20025;-77
2022/09/01 07:00:19;;;;;;;56.75;53.05;;;22.40;82.10;;;;;;5032044;28;20474;-77
2022/09/01 07:02:46;;;;;;;58.17;54.22;;;22.50;82.10;;;;;;5048830;28;20048;-77
2022/09/01 07:05:18;;;;;;;56.45;52.90;;;22.50;81.90;;;;;;5032181;28;20036;-77
2022/09/01 07:07:53;;;;;;;61.38;57.58;;;22.60;82.10;;;;;;5032734;28;20410;-77
2022/09/01 07:10:26;;;;;;;64.45;60.25;;;22.60;81.70;;;;;;5049434;28;20029;-77
2022/09/01 07:12:54;;;;;;;64.65;60.38;;;22.70;81.80;;;;;;5052173;28;20466;-77
2022/09/01 07:15:21;;;;;;;64.13;59.70;;;22.70;81.90;;;;;;5053167;28;20510;-77
2022/09/01 07:17:52;;;;;;;67.30;62.25;;;22.70;81.50;;;;;;5035317;28;20067;-77
2022/09/01 07:20:20;;;;;;;77.75;72.95;;;22.70;81.70;;;;;;5052243;28;20040;-77
2022/09/01 07:22:47;;;;;;;66.95;62.42;;;22.70;82.20;;;;;;5035555;28;20037;-77
2022/09/01 07:25:13;;;;;;;71.97;67.20;;;22.70;81.80;;;;;;5052369;28;20041;-77
2022/09/01 07:27:40;;;;;;;69.50;64.97;;;22.70;81.70;;;;;;5051588;28;20390;-77
2022/09/01 07:30:10;;;;;;;78.40;73.78;;;22.70;81.60;;;;;;5034993;28;20037;-77
2022/09/01 07:32:38;;;;;;;82.10;77.22;;;22.70;81.30;;;;;;5020047;28;20044;-77
2022/09/01 07:35:07;;;;;;;93.80;88.50;;;22.60;81.30;;;;;;5034038;28;20041;-77
2022/09/01 07:37:36;;;;;;;83.10;78.10;;;22.50;81.80;;;;;;5031928;28;20044;-77
2022/09/01 07:40:10;;;;;;;89.72;84.38;;;22.50;81.30;;;;;;5028346;28;20147;-77
2022/09/01 07:42:40;;;;;;;65.85;61.63;;;22.30;80.70;;;;;;5038197;28;20393;-77
2022/09/01 07:45:10;;;;;;;81.57;76.10;;;22.10;81.20;;;;;;5043374;28;20033;-77
2022/09/01 07:47:36;;;;;;;86.90;81.43;;;22.10;81.40;;;;;;5055099;28;20045;-75
2022/09/01 07:50:07;;;;;;;87.15;82.05;;;22.20;80.70;;;;;;5050755;28;20040;-77
2022/09/01 07:52:39;;;;;;;68.35;63.97;;;22.20;80.80;;;;;;5019544;28;20397;-77
2022/09/01 07:55:07;;;;;;;102.45;96.40;;;22.30;80.90;;;;;;5035118;28;20048;-77
2022/09/01 07:57:33;;;;;;;88.88;83.45;;;22.30;79.50;;;;;;5035418;28;20044;-77
2022/09/01 07:59:59;;;;;;;78.60;73.55;;;22.10;79.70;;;;;;5034813;28;20466;-77
2022/09/01 08:02:26;;;;;;;88.93;84.00;;;22.10;81.10;;;;;;5047401;28;20041;-77
2022/09/01 08:04:53;;;;;;;64.15;60.40;;;22.10;81.30;;;;;;5031547;28;20486;-77
2022/09/01 08:07:19;;;;;;;86.85;81.97;;;22.20;81.80;;;;;;5031545;28;20026;-77
2022/09/01 08:09:45;;;;;;;83.78;78.82;;;22.20;81.40;;;;;;5031189;28;20040;-77
2022/09/01 08:12:11;;;;;;;91.07;85.95;;;22.30;81.00;;;;;;5015091;28;20037;-77
2022/09/01 08:14:37;;;;;;;91.15;85.88;;;22.30;79.50;;;;;;5032628;28;20414;-77
2022/09/01 08:17:04;;;;;;;109.25;102.75;;;22.30;80.70;;;;;;5047385;28;20033;-77
2022/09/01 08:19:30;;;;;;;93.03;87.57;;;22.30;80.60;;;;;;5034646;28;20044;-77
2022/09/01 08:21:56;;;;;;;115.82;108.82;;;22.40;80.30;;;;;;5052109;28;20378;-78
2022/09/01 08:24:22;;;;;;;72.43;68.15;;;22.60;80.80;;;;;;5050630;28;20032;-77
2022/09/01 08:26:48;;;;;;;74.50;70.07;;;22.90;79.20;;;;;;5034459;28;20386;-77
2022/09/01 08:29:14;;;;;;;73.60;69.30;;;23.00;78.40;;;;;;5034336;28;20037;-77
2022/09/01 08:31:40;;;;;;;88.13;83.15;;;23.00;78.40;;;;;;5033865;28;20520;-77
2022/09/01 08:34:07;;;;;;;76.43;72.05;;;23.10;78.80;;;;;;5050674;28;20047;-77
2022/09/01 08:36:33;;;;;;;89.35;84.40;;;23.20;77.90;;;;;;5051010;28;20047;-77
2022/09/01 08:39:00;;;;;;;76.03;71.47;;;23.20;77.80;;;;;;5050510;28;20029;-77
2022/09/01 08:41:31;;;;;;;60.83;56.55;;;23.30;77.30;;;;;;5030599;28;20041;-77
2022/09/01 08:44:24;;;;;;;66.53;62.42;;;23.30;76.60;;;;;;5048693;28;20104;-77
2022/09/01 08:46:55;;;;;;;100.40;94.28;;;23.30;76.10;;;;;;5057401;28;20025;-77
2022/09/01 08:49:22;;;;;;;69.43;65.03;;;23.30;77.10;;;;;;5017905;28;20036;-77
2022/09/01 08:51:57;;;;;;;64.38;60.40;;;23.40;74.90;;;;;;5050470;28;20037;-77
2022/09/01 08:54:25;;;;;;;56.20;52.88;;;23.30;75.60;;;;;;5030640;28;20402;-77
2022/09/01 08:56:58;;;;;;;58.08;54.45;;;23.20;75.20;;;;;;5047069;28;20378;-77
2022/09/01 08:59:24;;;;;;;62.33;58.45;;;23.40;75.70;;;;;;5017413;28;20041;-77
2022/09/01 09:02:16;;;;;;;97.13;91.70;;;23.50;74.40;;;;;;5033335;28;20017;-77
2022/09/01 09:05:10;;;;;;;98.75;93.05;;;23.60;75.10;;;;;;5064498;28;20028;-77
2022/09/01 09:08:08;;;;;;;72.78;67.78;;;23.80;75.50;;;;;;5051325;28;20032;-77
2022/09/01 09:11:10;;;;;;;70.90;65.85;;;24.00;74.80;;;;;;5050275;28;20433;-77
2022/09/01 09:13:39;;;;;;;54.70;51.30;;;24.30;73.90;;;;;;5050066;28;20045;-77
2022/09/01 09:16:14;;;;;;;59.15;55.08;;;24.40;73.10;;;;;;5051049;28;20036;-78
2022/09/01 09:18:53;;;;;;;67.35;63.25;;;24.50;72.70;;;;;;5050057;28;20029;-77
2022/09/01 09:21:28;;;;;;;71.10;66.63;;;24.60;73.00;;;;;;5049718;28;20505;-77
2022/09/01 09:24:12;;;;;;;69.18;65.10;;;24.60;72.70;;;;;;5049808;28;20041;-77
2022/09/01 09:26:38;;;;;;;69.38;65.10;;;24.70;72.70;;;;;;5049988;28;20025;-77
2022/09/01 09:29:04;;;;;;;71.10;67.07;;;24.90;71.70;;;;;;5049680;28;20021;-77
2022/09/01 09:31:36;;;;;;;76.10;71.88;;;24.90;72.20;;;;;;5032539;28;20037;-77
2022/09/01 09:34:02;;;;;;;74.80;70.30;;;24.90;72.00;;;;;;5049162;28;20025;-77
2022/09/01 09:36:37;;;;;;;78.15;73.70;;;24.90;71.80;;;;;;5033192;28;20041;-78
2022/09/01 09:39:11;;;;;;;87.10;82.30;;;24.90;72.10;;;;;;5033979;28;20590;-78
2022/09/01 09:41:39;;;;;;;88.43;83.25;;;24.90;71.90;;;;;;5033674;28;20041;-77
2022/09/01 09:44:14;;;;;;;78.15;73.55;;;24.80;72.20;;;;;;5039639;28;20491;-77
2022/09/01 09:46:41;;;;;;;74.70;70.35;;;24.90;72.10;;;;;;5063122;28;20060;-77
2022/09/01 09:49:19;;;;;;;88.75;83.70;;;24.90;71.90;;;;;;5049379;28;20056;-77
2022/09/01 09:51:56;;;;;;;89.38;84.18;;;25.00;71.80;;;;;;5016873;28;20493;-77
2022/09/01 09:54:24;;;;;;;93.63;88.68;;;24.90;71.80;;;;;;5049455;28;20037;-77
2022/09/01 09:57:03;;;;;;;93.50;88.30;;;24.90;71.70;;;;;;5033106;28;20032;-77
2022/09/01 09:59:53;;;;;;;79.30;74.50;;;24.90;71.80;;;;;;5050868;28;20032;-77
2022/09/01 10:02:38;;;;;;;78.53;73.93;;;25.00;71.90;;;;;;5049113;28;20051;-78
2022/09/01 10:05:26;;;;;;;79.65;74.80;;;24.90;71.60;;;;;;5049136;28;20037;-78
2022/09/01 10:07:53;;;;;;;74.40;70.20;;;24.90;71.20;;;;;;5049491;28;20520;-77
2022/09/01 10:10:43;;;;;;;77.07;72.47;;;24.90;71.20;;;;;;5032935;28;20041;-78
2022/09/01 10:13:20;;;;;;;93.47;88.60;;;24.90;71.30;;;;;;5049161;28;20041;-77
2022/09/01 10:15:55;;;;;;;102.45;96.55;;;24.90;71.60;;;;;;5031901;28;20044;-77
2022/09/01 10:18:29;;;;;;;102.82;97.20;;;24.80;72.00;;;;;;5049406;28;20033;-77
2022/09/01 10:21:11;;;;;;;105.20;99.57;;;24.70;72.60;;;;;;5050084;28;20021;-78
2022/09/01 10:23:37;;;;;;;85.15;80.32;;;24.70;72.40;;;;;;5049130;28;20029;-77
2022/09/01 10:26:10;;;;;;;92.22;87.05;;;24.80;72.60;;;;;;5050634;28;20481;-77
2022/09/01 10:29:05;;;;;;;77.78;73.10;;;24.80;73.00;;;;;;5048952;28;20040;-77
2022/09/01 10:31:31;;;;;;;66.68;62.78;;;24.90;72.50;;;;;;5050210;28;20508;-77
2022/09/01 10:33:57;;;;;;;72.60;67.95;;;25.00;71.50;;;;;;5016065;28;20033;-77
2022/09/01 10:36:23;;;;;;;63.00;59.20;;;25.00;71.70;;;;;;5048949;28;20070;-77
2022/09/01 10:38:49;;;;;;;48.60;45.20;;;25.10;71.30;;;;;;5032638;28;20021;-78
2022/09/01 10:41:40;;;;;;;43.22;40.00;;;25.20;69.70;;;;;;5032355;28;20041;-77
2022/09/01 10:44:07;;;;;;;;;;;25.30;68.40;;;;;;5051214;28;20025;-78
2022/09/01 10:46:33;;;;;;;51.30;47.60;;;25.30;68.80;;;;;;5059707;28;19919;-77
2022/09/01 10:48:59;;;;;;;49.25;46.28;;;25.40;68.40;;;;;;5053753;28;20044;-78
2022/09/01 10:51:39;;;;;;;48.67;45.67;;;25.40;67.70;;;;;;5036280;28;20489;-77
2022/09/01 10:54:05;;;;;;;56.08;52.83;;;25.30;67.30;;;;;;5052718;28;20033;-77
2022/09/01 10:56:45;;;;;;;53.72;50.20;;;25.40;68.20;;;;;;5019575;28;20040;-77
2022/09/01 10:59:24;;;;;;;47.07;44.17;;;25.40;68.20;;;;;;5036676;28;20029;-77
2022/09/01 11:01:50;;;;;;;48.70;45.97;;;25.40;67.50;;;;;;5053312;28;20394;-77
2022/09/01 11:04:16;;;;;;;48.55;45.60;;;25.30;67.10;;;;;;5053438;28;20044;-77
2022/09/01 11:07:00;;;;;;;42.85;40.17;;;25.40;67.40;;;;;;5052664;28;20028;-78
2022/09/01 11:09:43;;;;;;;46.33;43.47;;;25.50;66.00;;;;;;5052475;28;20450;-77
2022/09/01 11:12:30;;;;;;;46.08;43.28;;;25.60;66.60;;;;;;5053538;28;20048;-77
2022/09/01 11:14:57;;;;;;;45.72;42.70;;;25.70;66.00;;;;;;5053652;28;20037;-77
2022/09/01 11:17:36;;;;;;;49.47;46.58;;;25.70;65.60;;;;;;5051642;28;20029;-78
2022/09/01 11:20:24;;;;;;;51.67;48.63;;;25.60;64.60;;;;;;5052425;28;20040;-78
2022/09/01 11:23:15;;;;;;;45.25;42.75;;;25.50;65.30;;;;;;5037540;28;20040;-78
2022/09/01 11:25:45;;;;;;;;;;;25.50;65.30;;;;;;5053841;28;20033;-77
2022/09/01 11:28:14;;;;;;;53.50;50.40;;;25.50;65.70;;;;;;5051881;28;20372;-77
2022/09/01 11:30:54;;;;;;;45.67;43.00;;;25.50;65.90;;;;;;5051602;28;20032;-78
2022/09/01 11:33:57;;;;;;;44.00;41.28;;;25.60;65.60;;;;;;5037425;28;20028;-78
2022/09/01 11:36:36;;;;;;;46.65;43.85;;;25.60;65.00;;;;;;5053390;28;20045;-78
2022/09/01 11:39:17;;;;;;;52.00;48.88;;;25.70;65.60;;;;;;5051827;28;20029;-78
2022/09/01 11:41:45;;;;;;;52.03;49.08;;;25.80;64.00;;;;;;5033208;28;20029;-78
2022/09/01 11:44:33;;;;;;;48.58;45.97;;;25.80;64.50;;;;;;5022911;28;20397;-78
2022/09/01 11:47:05;;;;;;;53.92;50.88;;;25.90;64.30;;;;;;5059527;28;20029;-77
2022/09/01 11:49:33;;;;;;;39.65;37.08;;;26.10;64.20;;;;;;5019143;28;20068;-78
2022/09/01 11:52:00;;;;;;;42.88;40.28;;;26.10;61.60;;;;;;5018885;28;20629;-77
2022/09/01 11:54:37;;;;;;;33.50;31.35;;;25.90;62.50;;;;;;5034846;28;20520;-77
2022/09/01 11:57:30;;;;;;;40.35;37.53;;;25.70;61.60;;;;;;5035829;28;20025;-78
2022/09/01 11:59:57;;;;;;;44.17;41.40;;;25.60;63.20;;;;;;5047198;28;20052;-78
2022/09/01 12:02:34;;;;;;;46.20;43.45;;;25.70;63.70;;;;;;5034108;28;20041;-78
2022/09/01 12:05:02;;;;;;;43.15;40.67;;;25.80;64.10;;;;;;5051452;28;20029;-78
2022/09/01 12:07:34;;;;;;;43.85;41.17;;;25.80;62.80;;;;;;5051457;28;20031;-78
2022/09/01 12:10:00;;;;;;;42.40;39.80;;;25.90;62.40;;;;;;5051296;28;20044;-77
2022/09/01 12:12:28;;;;;;;41.40;39.10;;;26.00;62.80;;;;;;5051314;28;20037;-78
2022/09/01 12:14:58;;;;;;;40.00;37.80;;;26.20;62.10;;;;;;5051152;28;20421;-78
2022/09/01 12:17:24;;;;;;;38.55;36.20;;;26.30;61.80;;;;;;5050370;28;20037;-78
2022/09/01 12:19:50;;;;;;;44.95;42.38;;;26.40;61.60;;;;;;5051155;28;20052;-78
2022/09/01 12:22:19;;;;;;;39.33;37.15;;;26.50;61.70;;;;;;5034420;28;20390;-78
2022/09/01 12:24:46;;;;;;;39.80;37.53;;;26.60;60.60;;;;;;5050947;28;20024;-78
2022/09/01 12:27:13;;;;;;;40.35;37.95;;;26.60;60.80;;;;;;5050987;28;20028;-78
2022/09/01 12:29:39;;;;;;;33.70;31.73;;;26.70;60.00;;;;;;5034275;28;20564;-78
2022/09/01 12:32:05;;;;;;;36.88;34.78;;;26.60;59.50;;;;;;5033457;28;20033;-78
2022/09/01 12:34:42;;;;;;;39.08;36.50;;;26.40;60.00;;;;;;5033715;28;20051;-78
2022/09/01 12:37:14;;;;;;;56.92;53.78;;;26.10;61.00;;;;;;5034091;28;20045;-78
2022/09/01 12:39:42;;;;;;;52.28;49.30;;;26.20;61.50;;;;;;5046724;28;20041;-78
2022/09/01 12:42:31;;;;;;;45.97;43.53;;;26.30;61.70;;;;;;5030847;28;20049;-78
2022/09/01 12:45:01;;;;;;;42.42;39.75;;;26.40;61.00;;;;;;5030422;28;20046;-78
2022/09/01 12:47:36;;;;;;;38.00;35.88;;;26.40;60.50;;;;;;5058506;28;20052;-78
2022/09/01 12:50:15;;;;;;;41.00;38.50;;;26.50;59.80;;;;;;5051961;28;20033;-78